Golden Dolphin — WYZ5247 — position and weather

sailwx.info

Track history (hours):
 
Tides and Currents Weather Stations Pressure Air Temp Water Temp Dewpoint Dewpoint Depression Visibility Wind Speed Wind Dir Waves Ship Positions

Oceanographic research ship Golden Dolphin (USA)

Owner: ROSS LABORATORIES INC, SEATTLE, WA. More information available from US FCC via Universal Licensing System and Coast Guard Vessel Documentation Center.

Last reported at 2019-Aug-22 00:25 UTC. Time now 2019-Aug-24 08:49 UTC.
Position N 47°39' W 122°23'.

; draft 2.2 m.

Type: Dredging. MMSI: 367117140.

Date/timePositionNaut miles runAvg speedWind from/ knotsBaromVisibWave heightAir tempDewpointWater temp
2019-Aug-22 00:25N 47°39' W 122°23'0 0.0
2019-Aug-21 23:58N 47°39' W 122°23'  
2019-Aug-14 22:34N 47°39' W 122°23'0 0.0
2019-Aug-14 22:28N 47°39' W 122°23'1 2.0
2019-Aug-14 22:00N 47°40' W 122°24'0 0.4
2019-Aug-14 21:30N 47°40' W 122°24'2 3.3
2019-Aug-14 21:00N 47°42' W 122°25'5 9.3
2019-Aug-14 20:30N 47°46' W 122°25'4 8.7
2019-Aug-14 20:00N 47°50' W 122°28'5 9.1
2019-Aug-14 19:30N 47°54' W 122°30'32 8.0
2019-Aug-14 15:32N 48°20' W 122°59'010.5
2019-Aug-14 15:29N 48°20' W 122°60'510.4
2019-Aug-14 15:00N 48°25' W 122°57'611.7
2019-Aug-14 14:30N 48°31' W 122°57'3 5.7
2019-Aug-14 14:00N 48°32' W 123°01'0 0.0
2019-Aug-14 13:30N 48°32' W 123°01'0 0.0
2019-Aug-14 13:00N 48°32' W 123°01'0 0.0
2019-Aug-14 12:30N 48°32' W 123°01'0 0.0
2019-Aug-14 11:30N 48°32' W 123°01'0 0.0
2019-Aug-14 10:57N 48°32' W 123°01'0 0.0
2019-Aug-14 10:30N 48°32' W 123°01'0 0.0
2019-Aug-14 09:54N 48°32' W 123°01'0 0.0
2019-Aug-14 09:30N 48°32' W 123°01'0 0.0
2019-Aug-14 09:00N 48°32' W 123°01'0 0.0
2019-Aug-14 08:30N 48°32' W 123°01'0 0.0
2019-Aug-14 08:00N 48°32' W 123°01'0 0.0
2019-Aug-14 07:24N 48°32' W 123°01'0 0.0
2019-Aug-14 07:00N 48°32' W 123°01'0 0.0
2019-Aug-14 06:24N 48°32' W 123°01'0 0.0
2019-Aug-14 05:57N 48°32' W 123°01'0 0.0
2019-Aug-14 05:30N 48°32' W 123°01'0 0.0
2019-Aug-14 04:57N 48°32' W 123°01'0 0.0
2019-Aug-14 04:30N 48°32' W 123°01'0 0.0
2019-Aug-14 04:00N 48°32' W 123°01'0 0.0
2019-Aug-14 03:30N 48°32' W 123°01'0 0.0
2019-Aug-14 02:54N 48°32' W 123°01'0 0.0
2019-Aug-14 02:27N 48°32' W 123°01'0 0.0
2019-Aug-14 02:00N 48°32' W 123°01'0 0.0
2019-Aug-14 01:27N 48°32' W 123°01'4 1.0
2019-Aug-13 21:26N 48°36' W 123°02'3 7.3
2019-Aug-13 21:00N 48°40' W 123°01'5 7.8
2019-Aug-13 20:25N 48°43' W 122°57'3 4.9
2019-Aug-13 19:47N 48°46' W 122°54'  
Track history (hours):
 
Tides and Currents Weather Stations Pressure Air Temp Water Temp Dewpoint Dewpoint Depression Visibility Wind Speed Wind Dir Waves Ship Positions

Oceanographic research ship Golden Dolphin (USA)

Owner: ROSS LABORATORIES INC, SEATTLE, WA. More information available from US FCC via Universal Licensing System and Coast Guard Vessel Documentation Center.

Last reported at 2019-Aug-22 00:25 UTC. Time now 2019-Aug-24 08:49 UTC.
Position N 47°39' W 122°23'.

; draft 2.2 m.

Type: Dredging. MMSI: 367117140.

Date/timePositionNaut miles runAvg speedWind from/ knotsBaromVisibWave heightAir tempDewpointWater temp
2019-Aug-22 00:25N 47°39' W 122°23'0 0.0
2019-Aug-21 23:58N 47°39' W 122°23'  
2019-Aug-14 22:34N 47°39' W 122°23'0 0.0
2019-Aug-14 22:28N 47°39' W 122°23'1 2.0
2019-Aug-14 22:00N 47°40' W 122°24'0 0.4
2019-Aug-14 21:30N 47°40' W 122°24'2 3.3
2019-Aug-14 21:00N 47°42' W 122°25'5 9.3
2019-Aug-14 20:30N 47°46' W 122°25'4 8.7
2019-Aug-14 20:00N 47°50' W 122°28'5 9.1
2019-Aug-14 19:30N 47°54' W 122°30'32 8.0
2019-Aug-14 15:32N 48°20' W 122°59'010.5
2019-Aug-14 15:29N 48°20' W 122°60'510.4
2019-Aug-14 15:00N 48°25' W 122°57'611.7
2019-Aug-14 14:30N 48°31' W 122°57'3 5.7
2019-Aug-14 14:00N 48°32' W 123°01'0 0.0
2019-Aug-14 13:30N 48°32' W 123°01'0 0.0
2019-Aug-14 13:00N 48°32' W 123°01'0 0.0
2019-Aug-14 12:30N 48°32' W 123°01'0 0.0
2019-Aug-14 11:30N 48°32' W 123°01'0 0.0
2019-Aug-14 10:57N 48°32' W 123°01'0 0.0
2019-Aug-14 10:30N 48°32' W 123°01'0 0.0
2019-Aug-14 09:54N 48°32' W 123°01'0 0.0
2019-Aug-14 09:30N 48°32' W 123°01'0 0.0
2019-Aug-14 09:00N 48°32' W 123°01'0 0.0
2019-Aug-14 08:30N 48°32' W 123°01'0 0.0
2019-Aug-14 08:00N 48°32' W 123°01'0 0.0
2019-Aug-14 07:24N 48°32' W 123°01'0 0.0
2019-Aug-14 07:00N 48°32' W 123°01'0 0.0
2019-Aug-14 06:24N 48°32' W 123°01'0 0.0
2019-Aug-14 05:57N 48°32' W 123°01'0 0.0
2019-Aug-14 05:30N 48°32' W 123°01'0 0.0
2019-Aug-14 04:57N 48°32' W 123°01'0 0.0
2019-Aug-14 04:30N 48°32' W 123°01'0 0.0
2019-Aug-14 04:00N 48°32' W 123°01'0 0.0
2019-Aug-14 03:30N 48°32' W 123°01'0 0.0
2019-Aug-14 02:54N 48°32' W 123°01'0 0.0
2019-Aug-14 02:27N 48°32' W 123°01'0 0.0
2019-Aug-14 02:00N 48°32' W 123°01'0 0.0
2019-Aug-14 01:27N 48°32' W 123°01'4 1.0
2019-Aug-13 21:26N 48°36' W 123°02'3 7.3
2019-Aug-13 21:00N 48°40' W 123°01'5 7.8
2019-Aug-13 20:25N 48°43' W 122°57'3 4.9
2019-Aug-13 19:47N 48°46' W 122°54'  

Dump ship's entire track history